Laughlin AFB, Texas
Current Conditions -  °F | °C
As of 5:58 AM on Thursday 27 Nov 2014 (Local Time) from KDLF Reporting Station
Clear Clear  
Wind Chill: 36°   Ceiling: Unl
Heat Index: 39°   Visibility: 10mi
Dew Point: 34°   Wind: 5mph
Humidity: 82%   Direction: 300°WNW
Pressure: 30.39"   Gusts: NA
Location:  29.36°N, 100.78°W
Report Text: KDLF 271158Z AUTO 30004KT 10SM CLR 04/01 A3039 RMK AO2 SLP289 T00400012 10080 20038 52015 $
Loading
Personal Weather Stations






























Interactive Weather Map New forecast layout! Learn more

10-Day Weather Forecast

Advertisements
Track Severe Weather on mobile